Time;durP1;ratioP1;P1;durP2;ratioP2;P2;SDS_P1;SDS_P2;PMS_P1;PMS_P2;Temp;Humidity;BMP_temperature;BMP_pressure;BME280_temperature;BME280_humidity;BME280_pressure;Samples;Min_cycle;Max_cycle;Signal;HPM_P1;HPM_P2
2022/10/12 00:01:25;;;;;;;;;;;;;;;16.55;85.77;95798.00;5034562;28;965;-67
2022/10/12 00:03:51;;;;;;;;;;;;;;;16.55;85.45;95799.88;5034168;28;1984;-68
2022/10/12 00:06:19;;;;;;;;;;;;;;;16.51;85.53;95799.41;5034472;28;977;-68
2022/10/12 00:08:46;;;;;;;;;;;;;;;16.48;85.80;95801.63;5034207;28;1053;-68
2022/10/12 00:11:16;;;;;;;;;;;;;;;16.50;85.59;95796.88;5034154;28;1124;-68
2022/10/12 00:13:42;;;;;;;;;;;;;;;16.53;85.10;95796.53;5033883;28;1054;-68
2022/10/12 00:16:09;;;;;;;;;;;;;;;16.55;85.17;95794.47;5034243;28;1056;-68
2022/10/12 00:18:36;;;;;;;;;;;;;;;16.60;84.84;95789.38;5032771;28;1196;-67
2022/10/12 00:21:21;;;;;;;;;;;;;;;16.60;84.34;95792.06;5034124;28;1116;-68
2022/10/12 00:23:47;;;;;;;;;;;;;;;16.56;84.69;95790.72;5033908;28;1116;-68
2022/10/12 00:26:18;;;;;;;;;;;;;;;16.55;84.88;95789.06;5034116;28;1910;-68
2022/10/12 00:28:45;;;;;;;;;;;;;;;16.62;84.44;95791.88;5033794;28;1065;-68
2022/10/12 00:31:13;;;;;;;;;;;;;;;16.66;84.04;95785.94;5034023;28;954;-67
2022/10/12 00:33:39;;;;;;;;;;;;;;;16.72;84.02;95787.06;5033733;28;1241;-68
2022/10/12 00:36:26;;;;;;;;;;;;;;;16.72;83.89;95795.16;5033809;28;1108;-68
2022/10/12 00:38:53;;;;;;;;;;;;;;;16.73;83.49;95788.72;5033955;28;1005;-68
2022/10/12 00:41:20;;;;;;;;;;;;;;;16.74;83.57;95785.00;5033894;28;974;-68
2022/10/12 00:43:46;;;;;;;;;;;;;;;16.73;83.84;95780.63;5033743;28;997;-68
2022/10/12 00:46:17;;;;;;;;;;;;;;;16.68;84.26;95785.75;5033587;28;1906;-68
2022/10/12 00:48:45;;;;;;;;;;;;;;;16.64;84.65;95787.13;5033525;28;1104;-68
2022/10/12 00:51:11;;;;;;;;;;;;;;;16.53;84.45;95783.84;5033654;28;1367;-68
2022/10/12 00:53:41;;;;;;;;;;;;;;;16.48;84.53;95788.94;5033418;28;1524;-68
2022/10/12 00:56:11;;;;;;;;;;;;;;;16.47;84.98;95787.28;5032330;28;1314;-67
2022/10/12 00:58:37;;;;;;;;;;;;;;;16.52;84.57;95790.28;5033482;28;1044;-68
2022/10/12 01:01:04;;;;;;;;;;;;;;;16.59;84.42;95788.50;5033556;28;1068;-68
2022/10/12 01:03:31;;;;;;;;;;;;;;;16.58;84.62;95786.84;5031934;28;1110;-68
2022/10/12 01:05:57;;;;;;;;;;;;;;;16.59;84.50;95780.41;5033614;28;1993;-68
2022/10/12 01:08:23;;;;;;;;;;;;;;;16.63;84.61;95780.06;5033071;28;1113;-68
2022/10/12 01:10:49;;;;;;;;;;;;;;;16.64;84.60;95779.03;5033328;28;910;-68
2022/10/12 01:13:16;;;;;;;;;;;;;;;16.58;84.59;95773.34;5032249;28;1046;-68
2022/10/12 01:15:48;;;;;;;;;;;;;;;16.53;84.86;95773.06;5033294;28;994;-68
2022/10/12 01:18:24;;;;;;;;;;;;;;;16.47;85.06;95781.06;5033234;28;1319;-68
2022/10/12 01:20:50;;;;;;;;;;;;;;;16.45;85.05;95783.06;5033586;28;1047;-68
2022/10/12 01:23:16;;;;;;;;;;;;;;;16.44;85.00;95779.53;5033204;28;1042;-67
2022/10/12 01:25:51;;;;;;;;;;;;;;;16.47;85.28;95795.38;5036701;28;2000;-68
2022/10/12 01:28:22;;;;;;;;;;;;;;;16.46;85.15;95790.16;5037380;28;1017;-68
2022/10/12 01:30:51;;;;;;;;;;;;;;;16.43;85.22;95787.81;5037277;28;964;-68
2022/10/12 01:33:35;;;;;;;;;;;;;;;16.44;85.26;95787.63;5037438;28;1033;-68
2022/10/12 01:36:06;;;;;;;;;;;;;;;16.46;85.20;95787.47;5037646;28;1036;-68
2022/10/12 01:38:38;;;;;;;;;;;;;;;16.42;85.30;95783.47;5037104;28;1062;-68
2022/10/12 01:41:16;;;;;;;;;;;;;;;16.37;85.52;95779.44;5037027;28;977;-68
2022/10/12 01:43:43;;;;;;;;;;;;;;;16.36;85.40;95782.31;5037162;28;1044;-68
2022/10/12 01:46:12;;;;;;;;;;;;;;;16.44;85.23;95786.81;5036945;28;1984;-68
2022/10/12 01:48:38;;;;;;;;;;;;;;;16.46;85.09;95791.00;5036895;28;937;-68
2022/10/12 01:51:04;;;;;;;;;;;;;;;16.47;85.33;95794.56;5035943;28;1320;-68
2022/10/12 01:53:41;;;;;;;;;;;;;;;16.48;85.50;95788.13;5036867;28;965;-68
2022/10/12 01:56:21;;;;;;;;;;;;;;;16.47;85.40;95787.28;5037056;28;1136;-68
2022/10/12 01:58:56;;;;;;;;;;;;;;;16.48;85.10;95786.25;5036616;28;1243;-68
2022/10/12 02:01:28;;;;;;;;;;;;;;;16.39;85.59;95795.47;5036778;28;1131;-68
2022/10/12 02:03:54;;;;;;;;;;;;;;;16.36;85.33;95795.81;5037035;28;1122;-67
2022/10/12 02:06:22;;;;;;;;;;;;;;;16.33;85.62;95793.47;5036622;28;1109;-68
2022/10/12 02:08:55;;;;;;;;;;;;;;;16.32;85.60;95798.03;5036955;28;1033;-67
2022/10/12 02:11:22;;;;;;;;;;;;;;;16.33;85.57;95802.44;5036580;28;1228;-68
2022/10/12 02:13:51;;;;;;;;;;;;;;;16.37;85.46;95797.47;5036560;28;1011;-68
2022/10/12 02:16:18;;;;;;;;;;;;;;;16.42;84.90;95803.19;5036467;28;970;-68
2022/10/12 02:18:46;;;;;;;;;;;;;;;16.48;84.92;95797.03;5036285;28;1040;-67
2022/10/12 02:21:15;;;;;;;;;;;;;;;16.51;84.34;95799.41;5036579;28;1017;-68
2022/10/12 02:23:42;;;;;;;;;;;;;;;16.51;84.43;95795.88;5036169;28;1045;-68
2022/10/12 02:26:10;;;;;;;;;;;;;;;16.53;84.43;95799.22;5036326;28;1906;-68
2022/10/12 02:28:36;;;;;;;;;;;;;;;16.52;84.54;95801.09;5036113;28;1279;-68
2022/10/12 02:31:22;;;;;;;;;;;;;;;16.49;84.77;95801.44;5036223;28;1056;-68
2022/10/12 02:33:54;;;;;;;;;;;;;;;16.45;85.09;95805.53;5038826;28;1299;-68
2022/10/12 02:36:25;;;;;;;;;;;;;;;16.42;85.19;95807.75;5036006;28;1046;-68
2022/10/12 02:38:54;;;;;;;;;;;;;;;16.37;85.35;95803.75;5036131;28;970;-67
2022/10/12 02:41:24;;;;;;;;;;;;;;;16.25;85.28;95805.16;5036032;28;1054;-68
2022/10/12 02:43:56;;;;;;;;;;;;;;;16.22;85.24;95801.97;5035920;28;1129;-68
2022/10/12 02:46:24;;;;;;;;;;;;;;;16.24;85.43;95799.94;5034980;28;1040;-67
2022/10/12 02:48:51;;;;;;;;;;;;;;;16.27;85.41;95805.00;5035988;28;1049;-67
2022/10/12 02:51:18;;;;;;;;;;;;;;;16.28;85.36;95807.50;5035801;28;1257;-68
2022/10/12 02:53:45;;;;;;;;;;;;;;;16.29;85.58;95801.09;5035642;28;1320;-68
2022/10/12 02:56:11;;;;;;;;;;;;;;;16.28;85.11;95807.50;5035677;28;1045;-68
2022/10/12 02:58:38;;;;;;;;;;;;;;;16.31;85.37;95809.84;5035571;28;1092;-68
2022/10/12 03:01:04;;;;;;;;;;;;;;;16.33;85.38;95813.22;5035855;28;981;-68
2022/10/12 03:03:30;;;;;;;;;;;;;;;16.33;85.23;95815.06;5035330;28;1321;-68
2022/10/12 03:05:56;;;;;;;;;;;;;;;16.32;85.48;95802.59;5035523;28;1906;-67
2022/10/12 03:08:22;;;;;;;;;;;;;;;16.33;85.50;95806.97;5035587;28;982;-67
2022/10/12 03:10:48;;;;;;;;;;;;;;;16.37;85.25;95808.28;5035363;28;1093;-67
2022/10/12 03:13:14;;;;;;;;;;;;;;;16.35;84.90;95813.00;5035384;28;1044;-67
2022/10/12 03:15:40;;;;;;;;;;;;;;;16.28;85.27;95804.00;5035465;28;1006;-67
2022/10/12 03:18:06;;;;;;;;;;;;;;;16.26;85.35;95806.84;5034148;28;1057;-67
2022/10/12 03:20:32;;;;;;;;;;;;;;;16.22;85.28;95807.38;5035347;28;1021;-67
2022/10/12 03:22:58;;;;;;;;;;;;;;;16.22;85.73;95812.78;5035323;28;994;-67
2022/10/12 03:25:24;;;;;;;;;;;;;;;16.27;85.41;95805.00;5035016;28;1914;-67
2022/10/12 03:27:50;;;;;;;;;;;;;;;16.28;85.34;95804.81;5035036;28;962;-67
2022/10/12 03:30:16;;;;;;;;;;;;;;;16.28;85.20;95809.38;5035088;28;1033;-67
2022/10/12 03:32:42;;;;;;;;;;;;;;;16.28;85.36;95810.22;5035159;28;1050;-67
2022/10/12 03:35:08;;;;;;;;;;;;;;;16.32;85.17;95810.69;5035188;28;1056;-67
2022/10/12 03:37:34;;;;;;;;;;;;;;;16.33;85.27;95809.66;5035007;28;1037;-67
2022/10/12 03:40:01;;;;;;;;;;;;;;;16.29;85.40;95805.66;5034886;28;1109;-67
2022/10/12 03:42:27;;;;;;;;;;;;;;;16.22;85.45;95815.47;5034716;28;1123;-67
2022/10/12 03:44:53;;;;;;;;;;;;;;;16.18;85.33;95810.47;5034974;28;1902;-67
2022/10/12 03:47:19;;;;;;;;;;;;;;;16.19;85.71;95817.53;5034409;28;1067;-68
2022/10/12 03:49:45;;;;;;;;;;;;;;;16.20;85.61;95811.13;5034708;28;1288;-67
2022/10/12 03:52:11;;;;;;;;;;;;;;;16.16;85.48;95809.81;5034628;28;1229;-67
2022/10/12 03:54:37;;;;;;;;;;;;;;;16.10;85.41;95815.91;5034601;28;1226;-67
2022/10/12 03:57:03;;;;;;;;;;;;;;;16.07;85.42;95802.78;5034509;28;993;-67
2022/10/12 03:59:29;;;;;;;;;;;;;;;16.12;85.47;95810.31;5034663;28;1042;-66
2022/10/12 04:01:55;;;;;;;;;;;;;;;16.18;85.22;95805.06;5033345;28;1283;-68
2022/10/12 04:04:21;;;;;;;;;;;;;;;16.17;85.32;95816.03;5034490;28;1992;-68
2022/10/12 04:06:47;;;;;;;;;;;;;;;16.15;85.17;95810.81;5034265;28;1049;-68
2022/10/12 04:09:13;;;;;;;;;;;;;;;16.14;85.04;95811.84;5034432;28;953;-68
2022/10/12 04:11:39;;;;;;;;;;;;;;;16.15;85.36;95813.50;5034093;28;1312;-67
2022/10/12 04:14:05;;;;;;;;;;;;;;;16.17;85.23;95814.16;5033321;28;1029;-67
2022/10/12 04:16:31;;;;;;;;;;;;;;;16.17;85.14;95816.88;5034248;28;1201;-67
2022/10/12 04:18:57;;;;;;;;;;;;;;;16.17;85.18;95816.88;5033013;28;1058;-67
2022/10/12 04:21:23;;;;;;;;;;;;;;;16.19;85.32;95811.28;5034108;28;1125;-68
2022/10/12 04:23:49;;;;;;;;;;;;;;;16.15;85.25;95818.91;5034087;28;1017;-67
2022/10/12 04:26:15;;;;;;;;;;;;;;;16.13;85.59;95817.41;5033914;28;1985;-67
2022/10/12 04:28:41;;;;;;;;;;;;;;;16.11;85.55;95827.53;5033834;28;1050;-67
2022/10/12 04:31:07;;;;;;;;;;;;;;;16.10;85.44;95823.16;5034140;28;982;-67
2022/10/12 04:33:33;;;;;;;;;;;;;;;16.09;85.58;95822.31;5033968;28;1057;-67
2022/10/12 04:35:59;;;;;;;;;;;;;;;16.11;85.74;95824.84;5033867;28;1045;-67
2022/10/12 04:38:25;;;;;;;;;;;;;;;16.09;85.34;95819.63;5033752;28;1049;-68
2022/10/12 04:40:51;;;;;;;;;;;;;;;16.06;85.38;95822.66;5033708;28;993;-68
2022/10/12 04:43:17;;;;;;;;;;;;;;;16.04;85.38;95823.88;5033995;28;1095;-67
2022/10/12 04:45:43;;;;;;;;;;;;;;;16.02;85.24;95826.75;5033763;28;1981;-68
2022/10/12 04:48:09;;;;;;;;;;;;;;;16.02;85.44;95828.63;5033835;28;1071;-67
2022/10/12 04:50:35;;;;;;;;;;;;;;;16.01;85.72;95835.84;5033595;28;1292;-67
2022/10/12 04:53:01;;;;;;;;;;;;;;;16.01;85.69;95830.44;5033633;28;958;-67
2022/10/12 04:55:27;;;;;;;;;;;;;;;16.00;85.79;95839.56;5033445;28;1044;-67
2022/10/12 04:57:53;;;;;;;;;;;;;;;16.03;85.67;95836.53;5033639;28;1049;-67
2022/10/12 05:00:19;;;;;;;;;;;;;;;16.01;85.66;95838.53;5033056;28;1033;-67
2022/10/12 05:02:45;;;;;;;;;;;;;;;16.02;85.11;95845.63;5033315;28;1096;-67
2022/10/12 05:05:11;;;;;;;;;;;;;;;16.04;85.64;95840.88;5033436;28;1996;-67
2022/10/12 05:07:37;;;;;;;;;;;;;;;16.03;85.90;95836.53;5033286;28;1105;-68
2022/10/12 05:10:04;;;;;;;;;;;;;;;16.04;85.73;95838.19;5033428;28;1022;-67
2022/10/12 05:12:30;;;;;;;;;;;;;;;16.03;85.72;95839.22;5033553;28;1021;-68
2022/10/12 05:14:56;;;;;;;;;;;;;;;16.07;85.71;95850.47;5033496;28;1394;-67
2022/10/12 05:17:22;;;;;;;;;;;;;;;16.06;85.80;95844.25;5033446;28;1028;-67
2022/10/12 05:19:48;;;;;;;;;;;;;;;16.08;85.88;95838.69;5033306;28;1113;-67
2022/10/12 05:22:14;;;;;;;;;;;;;;;16.06;86.12;95844.25;5033338;28;1033;-68
2022/10/12 05:24:40;;;;;;;;;;;;;;;15.98;86.15;95847.84;5033056;28;1906;-69
2022/10/12 05:27:06;;;;;;;;;;;;;;;16.01;85.83;95849.31;5033131;28;1191;-67
2022/10/12 05:29:32;;;;;;;;;;;;;;;16.02;86.04;95856.41;5033321;28;1072;-68
2022/10/12 05:31:58;;;;;;;;;;;;;;;16.12;85.73;95854.31;5033363;28;1120;-67
2022/10/12 05:34:24;;;;;;;;;;;;;;;16.19;85.81;95849.91;5033182;28;981;-68
2022/10/12 05:36:50;;;;;;;;;;;;;;;16.23;85.87;95850.38;5033213;28;1061;-68
2022/10/12 05:39:16;;;;;;;;;;;;;;;16.26;85.97;95854.56;5033114;28;1127;-68
2022/10/12 05:41:42;;;;;;;;;;;;;;;16.29;85.84;95848.81;5032991;28;1060;-69
2022/10/12 05:44:08;;;;;;;;;;;;;;;16.29;86.43;95855.06;5033195;28;2001;-69
2022/10/12 05:46:34;;;;;;;;;;;;;;;16.29;86.20;95862.31;5031990;28;1056;-69
2022/10/12 05:49:00;;;;;;;;;;;;;;;16.30;86.15;95858.63;5033021;28;1101;-69
2022/10/12 05:51:26;;;;;;;;;;;;;;;16.31;86.28;95862.97;5032808;28;1319;-69
2022/10/12 05:53:52;;;;;;;;;;;;;;;16.29;86.13;95860.44;5032971;28;958;-68
2022/10/12 05:56:18;;;;;;;;;;;;;;;16.35;85.67;95867.00;5032901;28;974;-69
2022/10/12 05:58:44;;;;;;;;;;;;;;;16.32;86.27;95870.06;5033062;28;969;-69
2022/10/12 06:01:12;;;;;;;;;;;;;;;16.37;85.87;95878.44;5033076;28;974;-67
2022/10/12 06:03:38;;;;;;;;;;;;;;;16.41;85.82;95874.38;5032710;28;1275;-69
2022/10/12 06:06:05;;;;;;;;;;;;;;;16.45;85.43;95877.53;5032766;28;1991;-69
2022/10/12 06:08:32;;;;;;;;;;;;;;;16.45;85.59;95880.25;5031623;28;1010;-69
2022/10/12 06:10:58;;;;;;;;;;;;;;;16.42;85.48;95889.53;5033768;28;1049;-68
2022/10/12 06:13:24;;;;;;;;;;;;;;;16.35;85.95;95888.56;5036425;28;1058;-69
2022/10/12 06:15:51;;;;;;;;;;;;;;;16.35;86.24;95889.44;5036654;28;1069;-69
2022/10/12 06:18:17;;;;;;;;;;;;;;;16.40;86.23;95888.88;5036575;28;969;-68
2022/10/12 06:20:47;;;;;;;;;;;;;;;16.45;86.13;95888.34;5036276;28;1034;-68
2022/10/12 06:23:13;;;;;;;;;;;;;;;16.50;85.60;95894.88;5036331;28;1072;-69
2022/10/12 06:25:39;;;;;;;;;;;;;;;16.51;85.27;95895.75;5036096;28;1993;-69
2022/10/12 06:28:05;;;;;;;;;;;;;;;16.45;86.08;95896.44;5036433;28;1017;-68
2022/10/12 06:30:31;;;;;;;;;;;;;;;16.52;85.69;95900.97;5036065;28;1058;-68
2022/10/12 06:32:57;;;;;;;;;;;;;;;16.57;84.79;95901.25;5036322;28;1032;-67
2022/10/12 06:35:23;;;;;;;;;;;;;;;16.58;84.72;95913.72;5036169;28;1001;-68
2022/10/12 06:37:50;;;;;;;;;;;;;;;16.55;85.31;95915.94;5036024;28;958;-69
2022/10/12 06:40:19;;;;;;;;;;;;;;;16.58;85.01;95918.31;5036495;28;1013;-69
2022/10/12 06:42:45;;;;;;;;;;;;;;;16.57;85.16;95912.03;5036089;28;1234;-68
2022/10/12 06:45:11;;;;;;;;;;;;;;;16.60;85.16;95910.84;5035972;28;1911;-69
2022/10/12 06:47:37;;;;;;;;;;;;;;;16.61;85.50;95911.69;5035947;28;1005;-69
2022/10/12 06:50:03;;;;;;;;;;;;;;;16.57;85.29;95914.75;5035890;28;1355;-69
2022/10/12 06:52:30;;;;;;;;;;;;;;;16.52;84.74;95917.16;5035673;28;1200;-68
2022/10/12 06:54:56;;;;;;;;;;;;;;;16.55;85.20;95919.47;5036023;28;1041;-69
2022/10/12 06:57:22;;;;;;;;;;;;;;;16.59;85.95;95922.66;5035922;28;990;-69
2022/10/12 06:59:48;;;;;;;;;;;;;;;16.62;85.60;95932.25;5035614;28;1049;-69
2022/10/12 07:02:14;;;;;;;;;;;;;;;16.66;85.19;95925.50;5035601;28;1121;-69
2022/10/12 07:04:40;;;;;;;;;;;;;;;16.67;86.11;95922.59;5035497;28;1906;-69
2022/10/12 07:07:06;;;;;;;;;;;;;;;16.70;85.98;95929.50;5035578;28;1049;-69
2022/10/12 07:09:32;;;;;;;;;;;;;;;16.70;85.27;95926.81;5035342;28;1042;-69
2022/10/12 07:11:59;;;;;;;;;;;;;;;16.68;84.75;95931.56;5035670;28;1032;-69
2022/10/12 07:14:25;;;;;;;;;;;;;;;16.68;85.07;95921.59;5035501;28;981;-69
2022/10/12 07:16:51;;;;;;;;;;;;;;;16.72;84.79;95930.16;5035451;28;1024;-69
2022/10/12 07:19:17;;;;;;;;;;;;;;;16.71;84.57;95925.78;5035301;28;1304;-69
2022/10/12 07:21:43;;;;;;;;;;;;;;;16.73;84.88;95926.44;5033076;28;1120;-69
2022/10/12 07:24:12;;;;;;;;;;;;;;;16.78;85.59;95927.56;5033996;28;1914;-69
2022/10/12 07:26:38;;;;;;;;;;;;;;;16.83;85.16;95931.63;5035327;28;977;-69
2022/10/12 07:29:04;;;;;;;;;;;;;;;16.86;85.63;95925.88;5035290;28;1047;-68
2022/10/12 07:31:31;;;;;;;;;;;;;;;16.89;85.70;95925.53;5033848;28;1112;-68
2022/10/12 07:33:57;;;;;;;;;;;;;;;16.89;85.77;95936.31;5035151;28;1053;-68
2022/10/12 07:36:23;;;;;;;;;;;;;;;16.89;85.47;95933.63;5035054;28;978;-69
2022/10/12 07:38:49;;;;;;;;;;;;;;;16.93;85.28;95932.22;5035212;28;1061;-69
2022/10/12 07:41:15;;;;;;;;;;;;;;;16.93;85.27;95933.06;5035099;28;1013;-69
2022/10/12 07:43:42;;;;;;;;;;;;;;;16.95;86.24;95936.41;5034782;28;1112;-68
2022/10/12 07:46:08;;;;;;;;;;;;;;;16.98;85.94;95932.53;5034707;28;1961;-69
2022/10/12 07:48:34;;;;;;;;;;;;;;;16.97;85.81;95934.38;5034798;28;1124;-69
2022/10/12 07:51:07;;;;;;;;;;;;;;;16.94;85.46;95936.59;5033490;28;1264;-69
2022/10/12 07:53:34;;;;;;;;;;;;;;;16.96;85.96;95931.88;5034782;28;1049;-68
2022/10/12 07:56:01;;;;;;;;;;;;;;;16.91;86.25;95929.69;5034687;28;1108;-68
2022/10/12 07:58:27;;;;;;;;;;;;;;;16.96;85.96;95929.19;5034418;28;1065;-68
2022/10/12 08:00:53;;;;;;;;;;;;;;;17.02;85.76;95922.22;5034490;28;1325;-68
2022/10/12 08:03:19;;;;;;;;;;;;;;;17.05;85.57;95922.66;5034320;28;1291;-68
2022/10/12 08:05:45;;;;;;;;;;;;;;;17.09;85.42;95931.25;5034178;28;1915;-68
2022/10/12 08:08:13;;;;;;;;;;;;;;;17.10;85.50;95919.41;5034632;28;970;-68
2022/10/12 08:10:39;;;;;;;;;;;;;;;17.11;85.37;95923.78;5034247;28;1038;-68
2022/10/12 08:13:05;;;;;;;;;;;;;;;17.09;85.75;95929.41;5034293;28;1176;-68
2022/10/12 08:15:31;;;;;;;;;;;;;;;17.13;86.05;95924.44;5034263;28;997;-67
2022/10/12 08:17:57;;;;;;;;;;;;;;;17.12;85.43;95925.47;5034180;28;1116;-68
2022/10/12 08:20:23;;;;;;;;;;;;;;;17.12;85.43;95926.31;5034183;28;1005;-67
2022/10/12 08:22:49;;;;;;;;;;;;;;;17.13;84.84;95927.13;5034354;28;982;-68
2022/10/12 08:25:15;;;;;;;;;;;;;;;17.15;84.33;95927.81;5034260;28;1997;-67
2022/10/12 08:27:41;;;;;;;;;;;;;;;17.18;84.06;95925.56;5034119;28;1057;-67
2022/10/12 08:30:07;;;;;;;;;;;;;;;17.21;84.22;95920.84;5033950;28;1120;-68
2022/10/12 08:32:33;;;;;;;;;;;;;;;17.22;84.01;95926.03;5033818;28;1029;-68
2022/10/12 08:35:00;;;;;;;;;;;;;;;17.21;84.58;95918.16;5033847;28;1143;-68
2022/10/12 08:37:27;;;;;;;;;;;;;;;17.24;84.09;95918.59;5033999;28;1049;-68
2022/10/12 08:39:54;;;;;;;;;;;;;;;17.21;83.76;95918.97;5034018;28;982;-68
2022/10/12 08:42:23;;;;;;;;;;;;;;;17.16;84.56;95914.09;5033978;28;1063;-68
2022/10/12 08:45:01;;;;;;;;;;;;;;;17.17;84.53;95920.38;5033640;28;1983;-68
2022/10/12 08:47:27;;;;;;;;;;;;;;;17.26;84.25;95923.81;5033599;28;1069;-68
2022/10/12 08:49:53;;;;;;;;;;;;;;;17.26;84.54;95916.53;5032363;28;1292;-68
2022/10/12 08:52:27;;;;;;;;;;;;;;;17.32;83.93;95920.38;5033756;28;1058;-68
2022/10/12 08:54:54;;;;;;;;;;;;;;;17.33;84.33;95912.09;5033779;28;1040;-68
2022/10/12 08:57:20;;;;;;;;;;;;;;;17.35;82.57;95912.75;5033663;28;1045;-68
2022/10/12 08:59:46;;;;;;;;;;;;;;;17.19;81.99;95918.31;5033500;28;1068;-68
2022/10/12 09:02:31;;;;;;;;;;;;;;;17.22;81.18;95919.81;5033298;28;1148;-69
2022/10/12 09:04:57;;;;;;;;;;;;;;;17.32;81.51;95913.13;5033596;28;1993;-67
2022/10/12 09:07:43;;;;;;;;;;;;;;;17.33;79.62;95909.38;5033340;28;1043;-68
2022/10/12 09:10:09;;;;;;;;;;;;;;;17.36;80.63;95910.91;5033546;28;997;-68
2022/10/12 09:12:54;;;;;;;;;;;;;;;17.40;80.74;95911.38;5033240;28;1026;-68
2022/10/12 09:15:23;;;;;;;;;;;;;;;17.50;80.38;95910.06;5033382;28;1045;-68
2022/10/12 09:17:53;;;;;;;;;;;;;;;17.50;80.89;95915.47;5033290;28;1045;-67
2022/10/12 09:20:26;;;;;;;;;;;;;;;17.49;80.93;95911.09;5033274;28;1046;-68
2022/10/12 09:23:02;;;;;;;;;;;;;;;17.55;80.65;95909.50;5033342;28;954;-68
2022/10/12 09:25:28;;;;;;;;;;;;;;;17.63;80.91;95911.28;5033083;28;1984;-67
2022/10/12 09:28:00;;;;;;;;;;;;;;;17.58;80.94;95911.81;5033255;28;1057;-68
2022/10/12 09:30:26;;;;;;;;;;;;;;;17.60;82.08;95912.47;5033324;28;1014;-68
2022/10/12 09:33:02;;;;;;;;;;;;;;;17.69;80.35;95914.06;5033190;28;1259;-68
2022/10/12 09:35:28;;;;;;;;;;;;;;;17.64;80.04;95912.94;5031958;28;1013;-68
2022/10/12 09:37:54;;;;;;;;;;;;;;;17.67;80.62;95913.41;5033133;28;1073;-68
2022/10/12 09:40:22;;;;;;;;;;;;;;;17.79;79.48;95910.25;5033081;28;1034;-68
2022/10/12 09:42:49;;;;;;;;;;;;;;;17.92;80.43;95911.28;5033131;28;1062;-68
2022/10/12 09:45:15;;;;;;;;;;;;;;;18.03;78.85;95904.56;5034278;28;2004;-68
2022/10/12 09:47:42;;;;;;;;;;;;;;;18.05;79.12;95912.50;5037035;28;1099;-68
2022/10/12 09:50:08;;;;;;;;;;;;;;;17.98;80.09;95909.69;5036953;28;1351;-68
2022/10/12 09:52:35;;;;;;;;;;;;;;;17.93;79.82;95899.44;5036815;28;1057;-68
2022/10/12 09:55:24;;;;;;;;;;;;;;;17.97;78.62;95905.31;5036868;28;1232;-68
2022/10/12 09:57:56;;;;;;;;;;;;;;;17.93;78.97;95907.56;5038867;28;1051;-68
2022/10/12 10:00:22;;;;;;;;;;;;;;;17.89;79.74;95902.69;5036869;28;1036;-68
2022/10/12 10:02:49;;;;;;;;;;;;;;;17.91;77.89;95898.78;5036458;28;1279;-69
2022/10/12 10:05:23;;;;;;;;;;;;;;;17.99;78.24;95902.44;5036869;28;1918;-68
2022/10/12 10:07:49;;;;;;;;;;;;;;;17.93;78.35;95893.19;5036883;28;1021;-68
2022/10/12 10:10:22;;;;;;;;;;;;;;;17.88;77.01;95890.22;5036767;28;977;-68
2022/10/12 10:12:57;;;;;;;;;;;;;;;17.98;73.70;95896.16;5036690;28;1070;-68
2022/10/12 10:15:30;;;;;;;;;;;;;;;18.03;73.96;95896.44;5036508;28;969;-68
2022/10/12 10:17:58;;;;;;;;;;;;;;;18.00;74.76;95895.97;5036666;28;1053;-68
2022/10/12 10:20:29;;;;;;;;;;;;;;;18.01;74.69;95897.66;5035369;28;1014;-69
2022/10/12 10:22:56;;;;;;;;;;;;;;;18.07;72.79;95889.63;5036535;28;972;-68
2022/10/12 10:25:23;;;;;;;;;;;;;;;18.05;74.27;95888.13;5036326;28;1918;-68
2022/10/12 10:27:50;;;;;;;;;;;;;;;18.00;75.04;95883.28;5036239;28;1105;-69
2022/10/12 10:30:16;;;;;;;;;;;;;;;18.07;72.96;95880.66;5036151;28;1085;-68
2022/10/12 10:32:43;;;;;;;;;;;;;;;18.07;75.08;95881.50;5036319;28;966;-68
2022/10/12 10:35:12;;;;;;;;;;;;;;;18.12;74.10;95879.06;5035155;28;977;-68
2022/10/12 10:37:46;;;;;;;;;;;;;;;18.09;73.61;95875.91;5036118;28;1017;-68
2022/10/12 10:40:24;;;;;;;;;;;;;;;18.15;73.80;95872.41;5036091;28;985;-68
2022/10/12 10:42:52;;;;;;;;;;;;;;;18.10;72.13;95874.88;5035950;28;1058;-67
2022/10/12 10:45:25;;;;;;;;;;;;;;;18.07;74.03;95870.66;5035894;28;1996;-67
2022/10/12 10:47:59;;;;;;;;;;;;;;;18.18;74.26;95872.06;5036049;28;1037;-68
2022/10/12 10:50:32;;;;;;;;;;;;;;;18.10;74.34;95866.75;5035796;28;1396;-68
2022/10/12 10:52:59;;;;;;;;;;;;;;;18.10;73.49;95864.88;5034629;28;1065;-68
2022/10/12 10:55:40;;;;;;;;;;;;;;;18.07;75.41;95861.72;5035961;28;1063;-68
2022/10/12 10:58:16;;;;;;;;;;;;;;;18.04;74.85;95867.50;5034617;28;1113;-68
2022/10/12 11:00:43;;;;;;;;;;;;;;;18.13;75.71;95863.66;5035629;28;1057;-69
2022/10/12 11:03:24;;;;;;;;;;;;;;;18.11;74.81;95866.56;5035559;28;1247;-69
2022/10/12 11:05:53;;;;;;;;;;;;;;;18.08;75.07;95861.53;5035544;28;1988;-69
2022/10/12 11:08:20;;;;;;;;;;;;;;;18.02;76.30;95858.75;5035795;28;985;-68
2022/10/12 11:10:46;;;;;;;;;;;;;;;18.00;76.26;95861.63;5035582;28;1116;-69
2022/10/12 11:13:18;;;;;;;;;;;;;;;18.03;76.47;95857.72;5035649;28;1025;-68
2022/10/12 11:15:49;;;;;;;;;;;;;;;18.10;73.15;95859.47;5034265;28;970;-69
2022/10/12 11:18:41;;;;;;;;;;;;;;;18.09;73.23;95856.97;5035384;28;1057;-68
2022/10/12 11:21:12;;;;;;;;;;;;;;;18.15;74.33;95853.47;5032192;28;1075;-69
2022/10/12 11:23:44;;;;;;;;;;;;;;;18.20;72.86;95844.81;5035429;28;1048;-69
2022/10/12 11:26:30;;;;;;;;;;;;;;;18.13;72.84;95842.00;5035263;28;1914;-69
2022/10/12 11:28:58;;;;;;;;;;;;;;;18.00;73.96;95842.69;5035052;28;1087;-69
2022/10/12 11:31:31;;;;;;;;;;;;;;;18.01;73.70;95843.56;5035274;28;1037;-68
2022/10/12 11:33:59;;;;;;;;;;;;;;;18.01;74.58;95844.38;5035349;28;1016;-69
2022/10/12 11:36:27;;;;;;;;;;;;;;;18.01;74.41;95846.25;5035037;28;1039;-69
2022/10/12 11:39:16;;;;;;;;;;;;;;;17.98;75.21;95839.34;5035017;28;981;-69
2022/10/12 11:41:47;;;;;;;;;;;;;;;17.99;75.12;95842.91;5035046;28;978;-69
2022/10/12 11:44:13;;;;;;;;;;;;;;;18.09;74.40;95841.56;5034932;28;1089;-68
2022/10/12 11:46:48;;;;;;;;;;;;;;;18.09;75.27;95836.13;5034771;28;1895;-69
2022/10/12 11:49:20;;;;;;;;;;;;;;;18.09;74.85;95838.00;5034792;28;977;-69
2022/10/12 11:51:47;;;;;;;;;;;;;;;18.01;74.98;95838.13;5014842;28;1054;-69
2022/10/12 11:54:26;;;;;;;;;;;;;;;18.04;75.02;95833.19;5015139;28;1024;-69
2022/10/12 11:56:54;;;;;;;;;;;;;;;18.07;75.35;95831.97;5015058;28;1033;-69
2022/10/12 11:59:29;;;;;;;;;;;;;;;18.13;75.45;95829.31;5014929;28;1001;-69
2022/10/12 12:02:10;;;;;;;;;;;;;;;18.10;75.49;95828.88;5014670;28;1302;-69
2022/10/12 12:04:40;;;;;;;;;;;;;;;18.09;76.07;95829.91;5014604;28;1981;-68
2022/10/12 12:07:21;;;;;;;;;;;;;;;18.10;76.23;95823.47;5014777;28;1068;-69
2022/10/12 12:09:47;;;;;;;;;;;;;;;18.27;74.02;95829.47;5014428;28;1014;-69
2022/10/12 12:12:21;;;;;;;;;;;;;;;18.35;73.96;95829.34;5014710;28;1030;-69
2022/10/12 12:14:54;;;;;;;;;;;;;;;18.26;74.53;95819.66;5014697;28;982;-69
2022/10/12 12:17:20;;;;;;;;;;;;;;;18.24;73.08;95816.31;5014694;28;989;-69
2022/10/12 12:19:49;;;;;;;;;;;;;;;18.24;73.02;95821.72;5014534;28;1029;-68
2022/10/12 12:22:28;;;;;;;;;;;;;;;18.35;73.83;95832.06;5014530;28;1064;-69
2022/10/12 12:24:54;;;;;;;;;;;;;;;18.46;70.73;95831.53;5014285;28;1997;-70
2022/10/12 12:27:46;;;;;;;;;;;;;;;18.53;71.11;95832.44;5014566;28;1034;-69
2022/10/12 12:30:18;;;;;;;;;;;;;;;18.37;71.23;95827.28;5005825;28;1257;-67
2022/10/12 12:33:01;;;;;;;;;;;;;;;18.35;70.54;95823.94;5014115;28;1050;-68
2022/10/12 12:35:35;;;;;;;;;;;;;;;18.52;69.91;95835.34;5014069;28;1044;-69
2022/10/12 12:38:03;;;;;;;;;;;;;;;18.54;69.24;95828.69;5014370;28;1013;-69
2022/10/12 12:40:29;;;;;;;;;;;;;;;18.59;69.15;95829.97;5014196;28;1014;-68
2022/10/12 12:43:14;;;;;;;;;;;;;;;18.64;67.61;95824.81;5014072;28;1046;-68
2022/10/12 12:45:52;;;;;;;;;;;;;;;18.64;68.25;95828.34;5013942;28;1910;-69
2022/10/12 12:48:36;;;;;;;;;;;;;;;18.65;68.91;95819.22;5014314;28;997;-69
2022/10/12 12:51:03;;;;;;;;;;;;;;;18.66;67.55;95825.44;5026589;28;1297;-69
2022/10/12 12:53:30;;;;;;;;;;;;;;;18.58;69.23;95822.91;5033491;28;1042;-68
2022/10/12 12:56:02;;;;;;;;;;;;;;;18.43;70.57;95814.84;5033680;28;1124;-69
2022/10/12 12:58:38;;;;;;;;;;;;;;;18.34;72.26;95823.09;5033462;28;1097;-68
2022/10/12 13:01:06;;;;;;;;;;;;;;;18.33;73.06;95829.53;5033795;28;1004;-68
2022/10/12 13:03:49;;;;;;;;;;;;;;;18.30;73.04;95821.78;5032183;28;1106;-69
2022/10/12 13:06:21;;;;;;;;;;;;;;;18.30;73.48;95823.66;5033476;28;1886;-69